createdAt,value
2023-02-06T00:01:34.990Z,6.37
2023-02-06T00:04:03.274Z,7.67
2023-02-06T00:06:32.969Z,8.00
2023-02-06T00:09:01.273Z,8.90
2023-02-06T00:11:29.380Z,8.30
2023-02-06T00:13:57.435Z,9.60
2023-02-06T00:16:27.598Z,9.33
2023-02-06T00:18:57.238Z,7.23
2023-02-06T00:21:26.204Z,9.13
2023-02-06T00:23:57.233Z,7.50
2023-02-06T00:26:25.727Z,8.87
2023-02-06T00:28:54.388Z,8.43
2023-02-06T00:31:22.665Z,8.63
2023-02-06T00:33:50.775Z,8.40
2023-02-06T00:36:19.035Z,8.80
2023-02-06T00:38:47.122Z,8.63
2023-02-06T00:41:16.603Z,8.30
2023-02-06T00:43:44.936Z,8.90
2023-02-06T00:46:13.056Z,9.70
2023-02-06T00:48:42.061Z,7.40
2023-02-06T00:51:10.174Z,10.27
2023-02-06T00:53:38.777Z,10.70
2023-02-06T00:56:07.063Z,12.10
2023-02-06T00:58:36.589Z,9.73
2023-02-06T01:01:04.902Z,10.00
2023-02-06T01:03:33.026Z,9.10
2023-02-06T01:06:01.103Z,9.60
2023-02-06T01:08:29.310Z,10.50
2023-02-06T01:11:00.998Z,9.23
2023-02-06T01:13:29.535Z,8.40
2023-02-06T01:15:59.017Z,10.10
2023-02-06T01:18:27.260Z,10.20
2023-02-06T01:20:55.312Z,10.00
2023-02-06T01:23:26.013Z,9.93
2023-02-06T01:25:54.058Z,11.13
2023-02-06T01:28:22.157Z,9.50
2023-02-06T01:30:50.275Z,10.60
2023-02-06T01:33:19.830Z,9.00
2023-02-06T01:35:55.609Z,9.53
2023-02-06T01:38:23.835Z,9.80
2023-02-06T01:40:56.701Z,8.17
2023-02-06T01:43:28.704Z,9.87
2023-02-06T01:45:57.269Z,8.73
2023-02-06T01:48:32.816Z,10.73
2023-02-06T01:51:02.992Z,8.50
2023-02-06T01:53:32.516Z,10.13
2023-02-06T01:56:05.276Z,9.53
2023-02-06T01:58:36.720Z,8.60
2023-02-06T02:01:06.237Z,7.07
2023-02-06T02:03:39.291Z,10.60
2023-02-06T02:06:10.024Z,7.93
2023-02-06T02:08:40.775Z,8.87
2023-02-06T02:11:10.789Z,8.53
2023-02-06T02:13:40.023Z,7.27
2023-02-06T02:16:15.253Z,8.23
2023-02-06T02:19:00.906Z,9.00
2023-02-06T02:21:58.764Z,8.60
2023-02-06T02:24:41.894Z,7.67
2023-02-06T02:27:37.298Z,6.80
2023-02-06T02:30:45.189Z,8.67
2023-02-06T02:33:37.183Z,6.73
2023-02-06T02:36:15.581Z,7.77
2023-02-06T02:38:53.974Z,8.80
2023-02-06T02:41:28.748Z,8.83
2023-02-06T02:44:02.942Z,8.67
2023-02-06T02:46:35.880Z,8.23
2023-02-06T02:49:09.208Z,8.00
2023-02-06T02:51:40.436Z,9.80
2023-02-06T02:54:09.039Z,9.13
2023-02-06T02:56:39.224Z,9.03
2023-02-06T02:59:12.404Z,7.40
2023-02-06T03:01:46.738Z,6.70
2023-02-06T03:04:20.509Z,7.73
2023-02-06T03:07:17.802Z,8.27
2023-02-06T03:09:54.837Z,8.43
2023-02-06T03:12:29.239Z,9.03
2023-02-06T03:15:02.414Z,8.37
2023-02-06T03:17:36.330Z,8.40
2023-02-06T03:20:07.838Z,9.23
2023-02-06T03:22:39.035Z,8.57
2023-02-06T03:25:13.107Z,7.07
2023-02-06T03:27:44.500Z,8.83
2023-02-06T03:30:15.036Z,7.50
2023-02-06T03:32:46.342Z,8.03
2023-02-06T03:35:18.188Z,7.10
2023-02-06T03:37:48.851Z,7.33
2023-02-06T03:40:18.256Z,6.80
2023-02-06T03:42:51.438Z,6.77
2023-02-06T03:45:24.215Z,5.73
2023-02-06T03:47:53.706Z,6.63
2023-02-06T03:50:24.663Z,6.00
2023-02-06T03:52:57.068Z,7.67
2023-02-06T03:55:26.242Z,6.87
2023-02-06T03:57:57.570Z,6.90
2023-02-06T04:00:26.306Z,8.67
2023-02-06T04:02:56.499Z,7.00
2023-02-06T04:05:25.279Z,6.83
2023-02-06T04:07:56.652Z,7.70
2023-02-06T04:10:26.486Z,9.07
2023-02-06T04:12:54.766Z,7.80
2023-02-06T04:15:23.021Z,7.10
2023-02-06T04:17:59.879Z,8.10
2023-02-06T04:20:28.496Z,7.97
2023-02-06T04:22:58.406Z,9.40
2023-02-06T04:25:26.832Z,8.73
2023-02-06T04:27:55.102Z,8.43
2023-02-06T04:30:23.343Z,9.63
2023-02-06T04:32:51.496Z,9.03
2023-02-06T04:35:20.185Z,9.83
2023-02-06T04:37:48.240Z,9.90
2023-02-06T04:40:18.011Z,11.47
2023-02-06T04:42:46.097Z,10.47
2023-02-06T04:45:14.754Z,9.60
2023-02-06T04:47:42.781Z,12.70
2023-02-06T04:50:11.510Z,12.17
2023-02-06T04:52:39.527Z,13.03
2023-02-06T04:55:08.612Z,14.17
2023-02-06T04:57:38.114Z,12.63
2023-02-06T05:00:06.934Z,14.73
2023-02-06T05:02:37.504Z,13.70
2023-02-06T05:05:06.802Z,15.43
2023-02-06T05:07:35.277Z,13.80
2023-02-06T05:10:03.986Z,13.10
2023-02-06T05:12:32.001Z,15.43
2023-02-06T05:15:01.373Z,16.87
2023-02-06T05:17:29.454Z,12.83
2023-02-06T05:19:58.539Z,15.67
2023-02-06T05:22:26.982Z,14.60
2023-02-06T05:24:55.092Z,14.87
2023-02-06T05:27:23.219Z,13.40
2023-02-06T05:29:51.257Z,16.60
2023-02-06T05:32:20.642Z,15.47
2023-02-06T05:34:48.634Z,15.73
2023-02-06T05:37:16.760Z,15.50
2023-02-06T05:39:44.750Z,15.50
2023-02-06T05:42:12.747Z,14.30
2023-02-06T05:44:40.916Z,14.70
2023-02-06T05:47:09.011Z,14.30
2023-02-06T05:49:38.439Z,14.50
2023-02-06T05:52:07.168Z,15.33
2023-02-06T05:54:35.341Z,14.70
2023-02-06T05:57:03.449Z,12.47
2023-02-06T05:59:31.782Z,15.10
2023-02-06T06:02:00.332Z,15.90
2023-02-06T06:04:28.601Z,15.73
2023-02-06T06:06:58.579Z,14.63
2023-02-06T06:09:26.835Z,13.13
2023-02-06T06:11:54.912Z,13.33
2023-02-06T06:14:23.054Z,14.37
2023-02-06T06:16:52.623Z,13.70
2023-02-06T06:19:20.897Z,15.03
2023-02-06T06:21:48.977Z,14.83
2023-02-06T06:24:18.449Z,14.83
2023-02-06T06:26:46.579Z,16.80
2023-02-06T06:29:14.681Z,15.63
2023-02-06T06:31:42.909Z,14.00
2023-02-06T06:34:11.129Z,12.77
2023-02-06T06:36:39.132Z,14.90
2023-02-06T06:39:07.171Z,15.30
2023-02-06T06:41:36.610Z,14.70
2023-02-06T06:44:04.830Z,14.67
2023-02-06T06:46:32.845Z,13.10
2023-02-06T06:49:01.483Z,13.33
2023-02-06T06:51:30.140Z,13.40
2023-02-06T06:53:58.847Z,15.70
2023-02-06T06:56:27.019Z,16.30
2023-02-06T06:58:56.513Z,17.40
2023-02-06T07:01:24.687Z,17.10
2023-02-06T07:03:52.744Z,15.17
2023-02-06T07:06:20.880Z,18.53
2023-02-06T07:08:48.948Z,28.53
2023-02-06T07:11:18.519Z,26.53
2023-02-06T07:13:46.846Z,26.60
2023-02-06T07:16:16.493Z,25.47
2023-02-06T07:18:44.568Z,26.27
2023-02-06T07:21:14.177Z,25.30
2023-02-06T07:23:42.591Z,25.73
2023-02-06T07:26:10.664Z,21.87
2023-02-06T07:28:38.998Z,20.60
2023-02-06T07:31:08.426Z,20.93
2023-02-06T07:33:37.862Z,20.50
2023-02-06T07:36:06.593Z,19.57
2023-02-06T07:38:34.612Z,19.30
2023-02-06T07:41:03.587Z,18.70
2023-02-06T07:43:32.239Z,18.33
2023-02-06T07:46:01.403Z,16.73
2023-02-06T07:48:29.800Z,16.67
2023-02-06T07:51:04.885Z,15.30
2023-02-06T07:53:32.914Z,16.00
2023-02-06T07:56:01.249Z,16.07
2023-02-06T07:58:29.354Z,16.50
2023-02-06T08:01:00.622Z,17.33
2023-02-06T08:03:28.723Z,17.10
2023-02-06T08:05:56.812Z,18.03
2023-02-06T08:08:26.668Z,18.10
2023-02-06T08:10:54.701Z,18.60
2023-02-06T08:13:22.722Z,19.40
2023-02-06T08:15:50.752Z,18.43
2023-02-06T08:18:18.804Z,21.17
2023-02-06T08:20:46.818Z,20.27
2023-02-06T08:23:14.846Z,21.90
2023-02-06T08:25:44.368Z,19.93
2023-02-06T08:28:14.933Z,20.93
2023-02-06T08:30:43.146Z,19.57
2023-02-06T08:33:11.275Z,20.80
2023-02-06T08:35:39.464Z,23.43
2023-02-06T08:38:07.498Z,22.33
2023-02-06T08:40:35.623Z,22.37
2023-02-06T08:43:04.966Z,21.43
2023-02-06T08:45:33.052Z,20.80
2023-02-06T08:48:01.213Z,18.33
2023-02-06T08:50:29.244Z,20.63
2023-02-06T08:52:57.343Z,20.77
2023-02-06T08:55:25.520Z,20.87
2023-02-06T08:57:53.613Z,21.10
2023-02-06T09:00:23.557Z,18.80
2023-02-06T09:02:53.701Z,21.93
2023-02-06T09:05:22.530Z,18.77
2023-02-06T09:07:50.793Z,19.03
2023-02-06T09:10:27.031Z,20.00
2023-02-06T09:12:55.870Z,19.37
2023-02-06T09:15:25.301Z,20.50
2023-02-06T09:17:53.403Z,18.80
2023-02-06T09:20:22.527Z,17.73
2023-02-06T09:22:50.851Z,19.23
2023-02-06T09:25:18.877Z,17.70
2023-02-06T09:27:47.185Z,16.03
2023-02-06T09:30:16.102Z,17.33
2023-02-06T09:32:45.766Z,19.60
2023-02-06T09:35:13.820Z,17.73
2023-02-06T09:37:41.909Z,19.27
2023-02-06T09:40:13.156Z,19.47
2023-02-06T09:42:42.878Z,19.33
2023-02-06T09:45:17.293Z,21.00
2023-02-06T09:47:50.310Z,19.70
2023-02-06T09:50:27.750Z,20.67
2023-02-06T09:53:06.181Z,20.43
2023-02-06T09:55:39.769Z,20.47
2023-02-06T09:58:19.675Z,19.90
2023-02-06T10:00:53.356Z,22.97
2023-02-06T10:03:44.850Z,23.20
2023-02-06T10:06:19.239Z,22.67
2023-02-06T10:08:54.521Z,21.27
2023-02-06T10:11:33.553Z,23.27
2023-02-06T10:14:05.778Z,24.43
2023-02-06T10:16:39.627Z,24.40
2023-02-06T10:19:16.600Z,23.10
2023-02-06T10:21:51.595Z,21.57
2023-02-06T10:24:27.719Z,21.70
2023-02-06T10:26:59.330Z,19.80
2023-02-06T10:29:29.993Z,21.43
2023-02-06T10:32:13.788Z,21.07
2023-02-06T10:35:00.115Z,23.17
2023-02-06T10:37:47.620Z,22.13
2023-02-06T10:40:37.623Z,23.07
2023-02-06T10:43:17.290Z,21.60
2023-02-06T10:45:52.862Z,23.60
2023-02-06T10:48:29.395Z,24.27
2023-02-06T10:51:08.559Z,24.60
2023-02-06T10:53:40.098Z,23.90
2023-02-06T10:56:11.609Z,25.13
2023-02-06T10:58:47.106Z,24.73
2023-02-06T11:01:25.519Z,24.60
2023-02-06T11:03:59.994Z,23.50
2023-02-06T11:06:31.749Z,25.20
2023-02-06T11:09:00.037Z,26.43
2023-02-06T11:11:31.223Z,24.97
2023-02-06T11:14:02.521Z,25.13
2023-02-06T11:16:31.381Z,24.63
2023-02-06T11:19:06.353Z,26.40
2023-02-06T11:22:11.212Z,24.13
2023-02-06T11:24:40.702Z,24.20
2023-02-06T11:27:17.729Z,23.50
2023-02-06T11:29:50.403Z,25.80
2023-02-06T11:32:35.901Z,23.80
2023-02-06T11:35:07.395Z,23.20
2023-02-06T11:37:39.076Z,22.17
2023-02-06T11:40:27.508Z,25.53
2023-02-06T11:43:16.140Z,26.60
2023-02-06T11:45:45.448Z,27.93
2023-02-06T11:48:32.664Z,27.00
2023-02-06T11:51:00.835Z,30.10
2023-02-06T11:53:30.237Z,31.57
2023-02-06T11:56:06.104Z,29.23
2023-02-06T11:58:34.410Z,24.90
2023-02-06T12:01:05.995Z,24.63
2023-02-06T12:03:37.366Z,28.17
2023-02-06T12:06:18.802Z,30.23
2023-02-06T12:08:51.633Z,31.93
2023-02-06T12:11:25.016Z,31.67
2023-02-06T12:13:56.789Z,29.23
2023-02-06T12:16:25.390Z,28.17
2023-02-06T12:18:57.601Z,28.80
2023-02-06T12:21:35.732Z,30.40
2023-02-06T12:24:16.233Z,27.97
2023-02-06T12:26:46.342Z,28.20
2023-02-06T12:29:19.199Z,27.90
2023-02-06T12:31:53.625Z,26.10
2023-02-06T12:34:25.556Z,27.47
2023-02-06T12:37:08.804Z,26.70
2023-02-06T12:39:38.675Z,26.40
2023-02-06T12:42:36.259Z,26.03
2023-02-06T12:45:13.539Z,27.37
2023-02-06T12:47:47.186Z,27.50
2023-02-06T12:50:19.902Z,26.30
2023-02-06T12:52:52.740Z,27.27
2023-02-06T12:55:26.306Z,25.97
2023-02-06T12:57:55.084Z,27.10
2023-02-06T13:00:46.241Z,25.93
2023-02-06T13:03:24.988Z,25.30
2023-02-06T13:05:56.655Z,24.47
2023-02-06T13:08:29.708Z,23.67
2023-02-06T13:11:05.092Z,24.00
2023-02-06T13:13:36.571Z,22.07
2023-02-06T13:16:05.945Z,21.83
2023-02-06T13:18:53.081Z,19.27
2023-02-06T13:21:24.989Z,17.73
2023-02-06T13:24:13.495Z,17.37
2023-02-06T13:27:14.248Z,16.80
2023-02-06T13:29:46.141Z,16.53
2023-02-06T13:32:50.202Z,16.87
2023-02-06T13:35:23.979Z,14.97
2023-02-06T13:38:10.670Z,15.30
2023-02-06T13:40:38.763Z,11.90
2023-02-06T13:43:18.531Z,9.87
2023-02-06T13:45:50.651Z,9.90
2023-02-06T13:48:40.288Z,8.20
2023-02-06T13:51:32.702Z,8.10
2023-02-06T13:54:24.076Z,7.67
2023-02-06T13:57:09.594Z,8.50
2023-02-06T13:59:43.116Z,9.10
2023-02-06T14:02:14.354Z,8.80
2023-02-06T14:04:46.273Z,8.03
2023-02-06T14:07:56.207Z,9.63
2023-02-06T14:10:44.091Z,8.47
2023-02-06T14:13:24.812Z,7.30
2023-02-06T14:16:04.793Z,8.83
2023-02-06T14:18:43.216Z,9.07
2023-02-06T14:21:24.526Z,7.47
2023-02-06T14:24:09.853Z,7.03
2023-02-06T14:26:46.839Z,6.47
2023-02-06T14:29:28.770Z,7.57
2023-02-06T14:32:13.292Z,7.60
2023-02-06T14:34:59.129Z,6.20
2023-02-06T14:37:57.124Z,6.93
2023-02-06T14:40:27.158Z,6.90
2023-02-06T14:42:59.135Z,7.20
2023-02-06T14:45:38.713Z,7.37
2023-02-06T14:48:21.992Z,8.00
2023-02-06T14:50:55.526Z,7.10
2023-02-06T14:53:27.940Z,7.77
2023-02-06T14:56:07.996Z,7.83
2023-02-06T14:58:36.508Z,7.33
2023-02-06T15:01:21.254Z,7.60
2023-02-06T15:03:54.896Z,7.57
2023-02-06T15:06:34.751Z,7.73
2023-02-06T15:09:02.950Z,7.23
2023-02-06T15:11:33.307Z,7.93
2023-02-06T15:14:03.448Z,7.77
2023-02-06T15:16:33.072Z,9.07
2023-02-06T15:19:13.628Z,9.00
2023-02-06T15:21:44.011Z,9.40
2023-02-06T15:24:27.452Z,7.40
2023-02-06T15:27:03.998Z,7.53
2023-02-06T15:29:32.246Z,8.23
2023-02-06T15:32:04.988Z,9.10
2023-02-06T15:34:34.996Z,7.83
2023-02-06T15:37:21.010Z,10.60
2023-02-06T15:39:49.836Z,9.20
2023-02-06T15:42:19.263Z,10.27
2023-02-06T15:44:48.672Z,9.10
2023-02-06T15:47:20.089Z,9.87
2023-02-06T15:49:53.127Z,7.83
2023-02-06T15:52:36.656Z,8.30
2023-02-06T15:55:05.020Z,9.10
2023-02-06T15:57:36.418Z,8.60
2023-02-06T16:00:09.484Z,9.37
2023-02-06T16:02:41.854Z,9.07
2023-02-06T16:05:24.790Z,10.50
2023-02-06T16:07:53.015Z,8.87
2023-02-06T16:10:24.452Z,8.37
2023-02-06T16:12:53.582Z,9.30
2023-02-06T16:15:33.663Z,8.20
2023-02-06T16:18:03.826Z,8.50
2023-02-06T16:20:39.773Z,9.93
2023-02-06T16:23:30.165Z,8.60
2023-02-06T16:26:07.312Z,8.30
2023-02-06T16:28:43.297Z,7.63
2023-02-06T16:31:13.362Z,8.90
2023-02-06T16:33:44.178Z,7.80
2023-02-06T16:36:16.341Z,8.80
2023-02-06T16:38:54.035Z,8.40
2023-02-06T16:41:33.439Z,9.90
2023-02-06T16:44:02.915Z,7.87
2023-02-06T16:46:31.633Z,9.87
2023-02-06T16:49:00.802Z,10.80
2023-02-06T16:51:31.923Z,11.83
2023-02-06T16:54:00.125Z,12.00
2023-02-06T16:56:28.314Z,11.60
2023-02-06T16:58:56.450Z,10.93
2023-02-06T17:01:28.190Z,12.70
2023-02-06T17:03:56.801Z,13.03
2023-02-06T17:06:26.717Z,13.67
2023-02-06T17:09:01.948Z,12.33
2023-02-06T17:11:30.161Z,12.93
2023-02-06T17:13:58.335Z,13.70
2023-02-06T17:16:28.105Z,13.40
2023-02-06T17:18:56.240Z,13.10
2023-02-06T17:21:27.620Z,13.90
2023-02-06T17:23:57.072Z,16.20
2023-02-06T17:26:25.598Z,15.00
2023-02-06T17:28:53.850Z,14.87
2023-02-06T17:31:22.192Z,16.30
2023-02-06T17:33:50.677Z,16.90
2023-02-06T17:36:26.800Z,15.87
2023-02-06T17:38:56.615Z,16.20
2023-02-06T17:41:24.714Z,17.50
2023-02-06T17:43:52.790Z,17.10
2023-02-06T17:46:20.972Z,17.70
2023-02-06T17:48:49.363Z,18.67
2023-02-06T17:51:17.463Z,19.57
2023-02-06T17:53:45.628Z,21.27
2023-02-06T17:56:15.160Z,23.87
2023-02-06T17:58:44.756Z,22.00
2023-02-06T18:01:13.054Z,20.50
2023-02-06T18:03:41.749Z,19.07
2023-02-06T18:06:10.642Z,18.50
2023-02-06T18:08:38.897Z,19.03
2023-02-06T18:11:11.425Z,18.93
2023-02-06T18:13:42.438Z,19.07
2023-02-06T18:16:15.074Z,16.93
2023-02-06T18:18:43.859Z,18.60
2023-02-06T18:21:12.349Z,18.67
2023-02-06T18:23:40.723Z,20.10
2023-02-06T18:26:10.251Z,20.20
2023-02-06T18:28:40.464Z,21.00
2023-02-06T18:31:25.530Z,20.10
2023-02-06T18:33:54.276Z,20.63
2023-02-06T18:36:22.971Z,21.03
2023-02-06T18:38:51.404Z,20.27
2023-02-06T18:41:37.752Z,22.33
2023-02-06T18:44:09.944Z,20.33
2023-02-06T18:46:38.763Z,25.23
2023-02-06T18:49:07.065Z,24.97
2023-02-06T18:51:35.108Z,27.57
2023-02-06T18:54:03.525Z,36.20
2023-02-06T18:56:32.337Z,56.20
2023-02-06T18:59:00.657Z,31.83
2023-02-06T19:01:30.059Z,30.67
2023-02-06T19:03:59.426Z,30.60
2023-02-06T19:06:31.783Z,30.80
2023-02-06T19:09:00.220Z,30.20
2023-02-06T19:11:28.493Z,27.00
2023-02-06T19:13:56.867Z,23.93
2023-02-06T19:16:26.406Z,25.70
2023-02-06T19:18:56.007Z,25.57
2023-02-06T19:21:25.719Z,24.57
2023-02-06T19:23:56.957Z,25.80
2023-02-06T19:26:25.792Z,25.27
2023-02-06T19:28:54.606Z,26.10
2023-02-06T19:31:24.601Z,28.47
2023-02-06T19:33:56.026Z,27.43
2023-02-06T19:36:25.551Z,25.87
2023-02-06T19:38:56.733Z,25.10
2023-02-06T19:41:26.782Z,25.63
2023-02-06T19:43:56.636Z,25.47
2023-02-06T19:46:26.674Z,25.10
2023-02-06T19:48:56.717Z,24.73
2023-02-06T19:51:26.475Z,24.23
2023-02-06T19:53:55.852Z,22.93
2023-02-06T19:56:26.034Z,24.03
2023-02-06T19:58:58.076Z,34.77
2023-02-06T20:01:26.794Z,25.10
2023-02-06T20:03:56.727Z,24.83
2023-02-06T20:06:24.950Z,23.40
2023-02-06T20:08:53.218Z,23.47
2023-02-06T20:11:23.069Z,21.87
2023-02-06T20:13:53.859Z,25.53
2023-02-06T20:16:25.309Z,24.83
2023-02-06T20:18:54.061Z,21.87
2023-02-06T20:21:27.932Z,22.30
2023-02-06T20:23:57.404Z,23.03
2023-02-06T20:26:28.940Z,23.03
2023-02-06T20:28:57.717Z,22.63
2023-02-06T20:31:26.615Z,23.10
2023-02-06T20:33:55.475Z,26.60
2023-02-06T20:36:27.587Z,22.77
2023-02-06T20:38:57.845Z,26.30
2023-02-06T20:41:27.700Z,24.97
2023-02-06T20:43:57.450Z,23.57
2023-02-06T20:46:26.351Z,25.73
2023-02-06T20:48:56.101Z,25.37
2023-02-06T20:51:26.586Z,25.77
2023-02-06T20:53:55.345Z,25.47
2023-02-06T20:56:24.480Z,23.83
2023-02-06T20:58:52.568Z,25.00
2023-02-06T21:01:23.302Z,26.30
2023-02-06T21:03:52.811Z,26.80
2023-02-06T21:06:20.971Z,26.27
2023-02-06T21:08:52.719Z,26.10
2023-02-06T21:11:21.311Z,24.93
2023-02-06T21:13:49.677Z,25.53
2023-02-06T21:16:17.747Z,25.20
2023-02-06T21:18:45.837Z,28.13
2023-02-06T21:21:15.481Z,32.07
2023-02-06T21:23:44.701Z,30.93
2023-02-06T21:26:16.159Z,33.20
2023-02-06T21:28:44.267Z,29.67
2023-02-06T21:31:15.672Z,29.70
2023-02-06T21:33:44.277Z,29.47
2023-02-06T21:36:12.436Z,32.10
2023-02-06T21:38:41.113Z,31.67
2023-02-06T21:41:11.635Z,30.07
2023-02-06T21:43:41.892Z,28.87
2023-02-06T21:46:12.008Z,29.60
2023-02-06T21:48:41.190Z,35.50
2023-02-06T21:51:11.380Z,37.03
2023-02-06T21:53:39.933Z,36.37
2023-02-06T21:56:08.994Z,35.40
2023-02-06T21:58:37.545Z,40.17
2023-02-06T22:01:09.025Z,36.00
2023-02-06T22:03:37.200Z,31.50
2023-02-06T22:06:08.709Z,28.47
2023-02-06T22:08:37.300Z,27.50
2023-02-06T22:11:12.760Z,27.90
2023-02-06T22:13:41.160Z,27.10
2023-02-06T22:16:13.191Z,26.13
2023-02-06T22:18:42.110Z,24.60
2023-02-06T22:21:12.920Z,25.63
2023-02-06T22:23:41.794Z,24.60
2023-02-06T22:26:11.543Z,26.33
2023-02-06T22:28:39.980Z,24.70
2023-02-06T22:31:10.636Z,24.67
2023-02-06T22:33:39.046Z,18.77
2023-02-06T22:36:08.677Z,22.90
2023-02-06T22:38:36.779Z,23.37
2023-02-06T22:41:06.394Z,23.33
2023-02-06T22:43:36.659Z,21.97
2023-02-06T22:46:04.928Z,25.17
2023-02-06T22:48:34.763Z,25.47
2023-02-06T22:51:05.817Z,27.17
2023-02-06T22:53:33.983Z,24.90
2023-02-06T22:56:21.788Z,25.13
2023-02-06T22:58:50.645Z,23.30
2023-02-06T23:01:20.265Z,24.23
2023-02-06T23:03:52.836Z,21.30
2023-02-06T23:06:20.993Z,25.57
2023-02-06T23:08:49.118Z,22.40
2023-02-06T23:11:17.452Z,24.50
2023-02-06T23:13:45.574Z,22.50
2023-02-06T23:16:13.861Z,23.00
2023-02-06T23:18:42.174Z,20.00
2023-02-06T23:21:13.237Z,25.00
2023-02-06T23:23:42.261Z,20.10
2023-02-06T23:26:12.975Z,23.30
2023-02-06T23:28:42.059Z,21.80
2023-02-06T23:31:11.083Z,21.47
2023-02-06T23:33:40.942Z,20.00
2023-02-06T23:36:13.210Z,20.93
2023-02-06T23:38:42.016Z,18.60
2023-02-06T23:41:12.310Z,18.30
2023-02-06T23:43:41.302Z,19.03
2023-02-06T23:46:12.269Z,19.33
2023-02-06T23:48:40.999Z,18.57
2023-02-06T23:51:09.096Z,17.30
2023-02-06T23:53:38.738Z,16.50
2023-02-06T23:56:11.606Z,17.90
2023-02-06T23:58:39.772Z,17.23
